ボルドー の空港の天気 - METARとTAF

ボルドー・メリニャック空港 ( LFBD / BOD ) - フランス ボルドー
飛行場実況気象(Metar)
観測時間10/18 10:30 CEST (10/18 08:30 UTC)
風向・風速南南西 3m/s
視程10km以上
天気現象
少しの雲 雲底高度 1010m
全天の4割程度の雲 雲底高度 1890m
全天を覆う雲 雲底高度 2320m
気温17℃
湿度77%
気圧1015hPa
METARLFBD 180830Z AUTO 21006KT 9999 FEW033 SCT062 OVC076 17/13 Q1015 TEMPO BKN025TCU
過去の天気等 Google飛行場航空写真 Wunderground天気予報

過去48時間のMETAR

飛行場予報(TAF)
発表時間: 10/18 07:00 CEST (10/18 05:00 UTC)
予報対象時間: 18日8時 CEST ~ 19日14時 CEST
風向・風速南南西 3m/s
視程10km以上
なし
18日10時 CEST ~ 18日12時 CEST に一時的に
天気現象弱いしゅう雨
全天の8割程度の塔状積雲 雲底高度 760m
18日11時 CEST ~ 18日13時 CEST に徐々に
風向・風速西南西 5m/s
18日18時 CEST ~ 18日20時 CEST に徐々に
風向・風速南 3m/s
18日20時 CEST ~ 19日2時 CEST に一時的に
視程4000m
天気現象弱いしゅう雨
全天の8割程度の雲 雲底高度 430m
全天の8割程度の塔状積雲 雲底高度 760m
19日4時 CEST ~ 19日6時 CEST に徐々に
全天を覆う雲 雲底高度 430m
19日6時 CEST ~ 19日9時 CEST に一時的に
視程3000m
天気現象
全天を覆う雲 雲底高度 150m
19日9時 CEST ~ 19日11時 CEST に徐々に
全天を覆う雲 雲底高度 1070m
19日11時 CEST ~ 19日14時 CEST に一時的に
視程4000m
天気現象しゅう雨
全天の8割程度の塔状積雲 雲底高度 610m
TAF LFBD 180500Z 1806/1912 21005KT CAVOK TX18/1814Z TN13/1906Z
TEMPO 1808/1810 -SHRA BKN025TCU
BECMG 1809/1811 25010KT
BECMG 1816/1818 19005KT
TEMPO 1818/1824 4000 -SHRA BKN014 BKN025TCU
BECMG 1902/1904 OVC014
TEMPO 1904/1907 3000 RA OVC005
BECMG 1907/1909 OVC035
TEMPO 1909/1912 4000 SHRA BKN020TCU